sensor_id;sensor_type;location;lat;lon;timestamp;P1;durP1;ratioP1;P2;durP2;ratioP2
75379;SDS011;65641;44.714;37.756;2023-03-01T00:00:41;8.40;;;5.72;;
75379;SDS011;65641;44.714;37.756;2023-03-01T00:01:50;8.00;;;5.70;;
75379;SDS011;65641;44.714;37.756;2023-03-01T00:03:14;7.95;;;5.57;;
75379;SDS011;65641;44.714;37.756;2023-03-01T00:04:17;8.52;;;6.07;;
75379;SDS011;65641;44.714;37.756;2023-03-01T00:05:22;9.30;;;5.47;;
75379;SDS011;65641;44.714;37.756;2023-03-01T00:06:42;7.90;;;5.15;;
75379;SDS011;65641;44.714;37.756;2023-03-01T00:07:53;9.00;;;5.45;;
75379;SDS011;65641;44.714;37.756;2023-03-01T00:08:57;9.43;;;5.55;;
75379;SDS011;65641;44.714;37.756;2023-03-01T00:10:20;8.23;;;5.53;;
75379;SDS011;65641;44.714;37.756;2023-03-01T00:11:44;8.95;;;5.18;;
75379;SDS011;65641;44.714;37.756;2023-03-01T00:12:49;7.88;;;5.55;;
75379;SDS011;65641;44.714;37.756;2023-03-01T00:13:55;10.05;;;6.78;;
75379;SDS011;65641;44.714;37.756;2023-03-01T00:15:00;8.88;;;6.07;;
75379;SDS011;65641;44.714;37.756;2023-03-01T00:16:28;9.27;;;5.88;;
75379;SDS011;65641;44.714;37.756;2023-03-01T00:17:39;8.70;;;5.85;;
75379;SDS011;65641;44.714;37.756;2023-03-01T00:19:02;8.30;;;5.82;;
75379;SDS011;65641;44.714;37.756;2023-03-01T00:20:26;9.73;;;5.63;;
75379;SDS011;65641;44.714;37.756;2023-03-01T00:21:30;9.48;;;5.75;;
75379;SDS011;65641;44.714;37.756;2023-03-01T00:22:53;8.40;;;5.45;;
75379;SDS011;65641;44.714;37.756;2023-03-01T00:24:07;9.18;;;5.32;;
75379;SDS011;65641;44.714;37.756;2023-03-01T00:25:31;8.88;;;6.28;;
75379;SDS011;65641;44.714;37.756;2023-03-01T00:26:34;9.45;;;5.88;;
75379;SDS011;65641;44.714;37.756;2023-03-01T00:27:41;8.70;;;5.72;;
75379;SDS011;65641;44.714;37.756;2023-03-01T00:28:47;9.82;;;6.43;;
75379;SDS011;65641;44.714;37.756;2023-03-01T00:30:10;9.43;;;6.63;;
75379;SDS011;65641;44.714;37.756;2023-03-01T00:31:19;9.05;;;6.15;;
75379;SDS011;65641;44.714;37.756;2023-03-01T00:32:27;9.13;;;5.32;;
75379;SDS011;65641;44.714;37.756;2023-03-01T00:33:44;8.20;;;5.95;;
75379;SDS011;65641;44.714;37.756;2023-03-01T00:34:49;8.85;;;6.70;;
75379;SDS011;65641;44.714;37.756;2023-03-01T00:35:59;10.23;;;6.45;;
75379;SDS011;65641;44.714;37.756;2023-03-01T00:37:03;10.07;;;5.68;;
75379;SDS011;65641;44.714;37.756;2023-03-01T00:38:09;8.90;;;5.28;;
75379;SDS011;65641;44.714;37.756;2023-03-01T00:39:24;8.85;;;6.03;;
75379;SDS011;65641;44.714;37.756;2023-03-01T00:40:30;8.60;;;5.80;;
75379;SDS011;65641;44.714;37.756;2023-03-01T00:41:43;8.50;;;6.32;;
75379;SDS011;65641;44.714;37.756;2023-03-01T00:43:01;8.75;;;5.18;;
75379;SDS011;65641;44.714;37.756;2023-03-01T00:44:11;9.63;;;5.38;;
75379;SDS011;65641;44.714;37.756;2023-03-01T00:45:16;7.07;;;5.22;;
75379;SDS011;65641;44.714;37.756;2023-03-01T00:46:40;9.27;;;5.95;;
75379;SDS011;65641;44.714;37.756;2023-03-01T00:47:53;8.60;;;5.00;;
75379;SDS011;65641;44.714;37.756;2023-03-01T00:49:05;8.43;;;5.88;;
75379;SDS011;65641;44.714;37.756;2023-03-01T00:50:19;8.55;;;5.28;;
75379;SDS011;65641;44.714;37.756;2023-03-01T00:51:24;8.65;;;5.25;;
75379;SDS011;65641;44.714;37.756;2023-03-01T00:52:32;8.35;;;5.40;;
75379;SDS011;65641;44.714;37.756;2023-03-01T00:53:45;8.25;;;5.25;;
75379;SDS011;65641;44.714;37.756;2023-03-01T00:55:57;7.80;;;6.03;;
75379;SDS011;65641;44.714;37.756;2023-03-01T00:57:01;8.35;;;5.25;;
75379;SDS011;65641;44.714;37.756;2023-03-01T00:58:06;8.05;;;5.10;;
75379;SDS011;65641;44.714;37.756;2023-03-01T00:59:12;7.65;;;5.10;;
75379;SDS011;65641;44.714;37.756;2023-03-01T01:00:18;8.68;;;5.78;;
75379;SDS011;65641;44.714;37.756;2023-03-01T01:01:27;7.75;;;5.18;;
75379;SDS011;65641;44.714;37.756;2023-03-01T01:02:35;8.35;;;5.70;;
75379;SDS011;65641;44.714;37.756;2023-03-01T01:03:57;8.10;;;4.88;;
75379;SDS011;65641;44.714;37.756;2023-03-01T01:05:04;9.30;;;5.10;;
75379;SDS011;65641;44.714;37.756;2023-03-01T01:06:13;8.68;;;5.30;;
75379;SDS011;65641;44.714;37.756;2023-03-01T01:07:18;8.77;;;6.10;;
75379;SDS011;65641;44.714;37.756;2023-03-01T01:08:23;8.43;;;5.47;;
75379;SDS011;65641;44.714;37.756;2023-03-01T01:09:28;8.77;;;5.43;;
75379;SDS011;65641;44.714;37.756;2023-03-01T01:10:34;8.05;;;5.43;;
75379;SDS011;65641;44.714;37.756;2023-03-01T01:11:40;7.53;;;5.07;;
75379;SDS011;65641;44.714;37.756;2023-03-01T01:12:46;8.35;;;5.55;;
75379;SDS011;65641;44.714;37.756;2023-03-01T01:13:51;8.25;;;5.68;;
75379;SDS011;65641;44.714;37.756;2023-03-01T01:14:57;8.82;;;5.30;;
75379;SDS011;65641;44.714;37.756;2023-03-01T01:16:02;7.93;;;5.50;;
75379;SDS011;65641;44.714;37.756;2023-03-01T01:17:26;9.75;;;5.47;;
75379;SDS011;65641;44.714;37.756;2023-03-01T01:18:36;8.20;;;5.20;;
75379;SDS011;65641;44.714;37.756;2023-03-01T01:19:43;8.75;;;5.68;;
75379;SDS011;65641;44.714;37.756;2023-03-01T01:20:54;8.50;;;5.53;;
75379;SDS011;65641;44.714;37.756;2023-03-01T01:22:18;8.55;;;5.35;;
75379;SDS011;65641;44.714;37.756;2023-03-01T01:23:43;8.50;;;4.60;;
75379;SDS011;65641;44.714;37.756;2023-03-01T01:24:48;7.82;;;4.50;;
75379;SDS011;65641;44.714;37.756;2023-03-01T01:25:57;8.48;;;4.85;;
75379;SDS011;65641;44.714;37.756;2023-03-01T01:27:06;8.27;;;4.75;;
75379;SDS011;65641;44.714;37.756;2023-03-01T01:28:17;8.57;;;5.85;;
75379;SDS011;65641;44.714;37.756;2023-03-01T01:29:22;9.70;;;5.47;;
75379;SDS011;65641;44.714;37.756;2023-03-01T01:30:27;7.53;;;4.68;;
75379;SDS011;65641;44.714;37.756;2023-03-01T01:31:51;8.05;;;5.13;;
75379;SDS011;65641;44.714;37.756;2023-03-01T01:33:14;7.60;;;4.93;;
75379;SDS011;65641;44.714;37.756;2023-03-01T01:34:21;7.82;;;4.68;;
75379;SDS011;65641;44.714;37.756;2023-03-01T01:35:27;6.68;;;4.78;;
75379;SDS011;65641;44.714;37.756;2023-03-01T01:36:52;7.95;;;4.65;;
75379;SDS011;65641;44.714;37.756;2023-03-01T01:38:02;7.97;;;4.50;;
75379;SDS011;65641;44.714;37.756;2023-03-01T01:39:08;8.02;;;4.90;;
75379;SDS011;65641;44.714;37.756;2023-03-01T01:40:17;7.50;;;4.65;;
75379;SDS011;65641;44.714;37.756;2023-03-01T01:41:41;7.90;;;4.93;;
75379;SDS011;65641;44.714;37.756;2023-03-01T01:42:49;8.75;;;5.25;;
75379;SDS011;65641;44.714;37.756;2023-03-01T01:45:36;8.90;;;5.00;;
75379;SDS011;65641;44.714;37.756;2023-03-01T01:47:03;8.85;;;5.07;;
75379;SDS011;65641;44.714;37.756;2023-03-01T01:48:24;8.50;;;5.38;;
75379;SDS011;65641;44.714;37.756;2023-03-01T01:50:08;7.30;;;4.40;;
75379;SDS011;65641;44.714;37.756;2023-03-01T01:51:21;8.75;;;5.00;;
75379;SDS011;65641;44.714;37.756;2023-03-01T01:52:34;8.27;;;4.85;;
75379;SDS011;65641;44.714;37.756;2023-03-01T01:53:40;9.63;;;5.63;;
75379;SDS011;65641;44.714;37.756;2023-03-01T01:56:00;8.48;;;5.47;;
75379;SDS011;65641;44.714;37.756;2023-03-01T01:57:32;8.00;;;4.70;;
75379;SDS011;65641;44.714;37.756;2023-03-01T01:58:59;7.90;;;4.60;;
75379;SDS011;65641;44.714;37.756;2023-03-01T02:00:25;8.75;;;4.57;;
75379;SDS011;65641;44.714;37.756;2023-03-01T02:01:31;8.30;;;5.20;;
75379;SDS011;65641;44.714;37.756;2023-03-01T02:02:36;8.25;;;4.78;;
75379;SDS011;65641;44.714;37.756;2023-03-01T02:03:46;8.65;;;5.28;;
75379;SDS011;65641;44.714;37.756;2023-03-01T02:04:53;8.48;;;4.85;;
75379;SDS011;65641;44.714;37.756;2023-03-01T02:06:22;8.35;;;4.75;;
75379;SDS011;65641;44.714;37.756;2023-03-01T02:07:36;7.03;;;4.45;;
75379;SDS011;65641;44.714;37.756;2023-03-01T02:08:43;7.30;;;4.72;;
75379;SDS011;65641;44.714;37.756;2023-03-01T02:09:51;9.35;;;5.47;;
75379;SDS011;65641;44.714;37.756;2023-03-01T02:11:02;8.68;;;5.38;;
75379;SDS011;65641;44.714;37.756;2023-03-01T02:12:10;9.13;;;5.47;;
75379;SDS011;65641;44.714;37.756;2023-03-01T02:13:27;8.30;;;4.70;;
75379;SDS011;65641;44.714;37.756;2023-03-01T02:14:51;8.65;;;4.57;;
75379;SDS011;65641;44.714;37.756;2023-03-01T02:15:57;8.25;;;5.00;;
75379;SDS011;65641;44.714;37.756;2023-03-01T02:17:02;8.73;;;5.03;;
75379;SDS011;65641;44.714;37.756;2023-03-01T02:18:10;7.88;;;5.10;;
75379;SDS011;65641;44.714;37.756;2023-03-01T02:21:25;7.95;;;4.70;;
75379;SDS011;65641;44.714;37.756;2023-03-01T02:23:50;8.73;;;5.03;;
75379;SDS011;65641;44.714;37.756;2023-03-01T02:26:47;7.88;;;4.70;;
75379;SDS011;65641;44.714;37.756;2023-03-01T02:29:18;7.82;;;4.45;;
75379;SDS011;65641;44.714;37.756;2023-03-01T02:30:24;8.52;;;4.93;;
75379;SDS011;65641;44.714;37.756;2023-03-01T02:31:30;8.00;;;4.65;;
75379;SDS011;65641;44.714;37.756;2023-03-01T02:33:06;8.55;;;4.72;;
75379;SDS011;65641;44.714;37.756;2023-03-01T02:34:17;7.65;;;4.50;;
75379;SDS011;65641;44.714;37.756;2023-03-01T02:35:25;8.23;;;4.72;;
75379;SDS011;65641;44.714;37.756;2023-03-01T02:36:32;7.38;;;5.10;;
75379;SDS011;65641;44.714;37.756;2023-03-01T02:38:03;7.32;;;4.53;;
75379;SDS011;65641;44.714;37.756;2023-03-01T02:39:13;7.65;;;5.07;;
75379;SDS011;65641;44.714;37.756;2023-03-01T02:40:24;8.15;;;4.70;;
75379;SDS011;65641;44.714;37.756;2023-03-01T02:43:02;7.88;;;4.90;;
75379;SDS011;65641;44.714;37.756;2023-03-01T02:44:10;8.50;;;4.32;;
75379;SDS011;65641;44.714;37.756;2023-03-01T02:45:20;8.65;;;4.97;;
75379;SDS011;65641;44.714;37.756;2023-03-01T02:46:49;8.52;;;4.50;;
75379;SDS011;65641;44.714;37.756;2023-03-01T02:47:55;8.68;;;4.65;;
75379;SDS011;65641;44.714;37.756;2023-03-01T02:49:22;10.32;;;5.68;;
75379;SDS011;65641;44.714;37.756;2023-03-01T02:52:01;8.63;;;4.28;;
75379;SDS011;65641;44.714;37.756;2023-03-01T02:53:41;7.00;;;4.43;;
75379;SDS011;65641;44.714;37.756;2023-03-01T02:55:22;9.13;;;5.40;;
75379;SDS011;65641;44.714;37.756;2023-03-01T02:56:27;7.28;;;4.65;;
75379;SDS011;65641;44.714;37.756;2023-03-01T02:57:36;6.85;;;4.82;;
75379;SDS011;65641;44.714;37.756;2023-03-01T02:58:42;7.57;;;4.85;;
75379;SDS011;65641;44.714;37.756;2023-03-01T03:00:15;7.28;;;4.85;;
75379;SDS011;65641;44.714;37.756;2023-03-01T03:01:50;7.43;;;4.22;;
75379;SDS011;65641;44.714;37.756;2023-03-01T03:02:54;8.93;;;4.47;;
75379;SDS011;65641;44.714;37.756;2023-03-01T03:04:04;7.07;;;4.18;;
75379;SDS011;65641;44.714;37.756;2023-03-01T03:05:33;8.00;;;4.78;;
75379;SDS011;65641;44.714;37.756;2023-03-01T03:06:45;8.60;;;4.88;;
75379;SDS011;65641;44.714;37.756;2023-03-01T03:07:50;7.82;;;4.88;;
75379;SDS011;65641;44.714;37.756;2023-03-01T03:09:07;6.15;;;3.80;;
75379;SDS011;65641;44.714;37.756;2023-03-01T03:10:13;8.50;;;4.47;;
75379;SDS011;65641;44.714;37.756;2023-03-01T03:11:22;7.40;;;4.95;;
75379;SDS011;65641;44.714;37.756;2023-03-01T03:12:50;9.07;;;4.85;;
75379;SDS011;65641;44.714;37.756;2023-03-01T03:13:56;7.28;;;4.30;;
75379;SDS011;65641;44.714;37.756;2023-03-01T03:15:03;7.32;;;4.25;;
75379;SDS011;65641;44.714;37.756;2023-03-01T03:16:14;7.38;;;4.20;;
75379;SDS011;65641;44.714;37.756;2023-03-01T03:17:39;8.68;;;4.82;;
75379;SDS011;65641;44.714;37.756;2023-03-01T03:18:46;7.30;;;4.47;;
75379;SDS011;65641;44.714;37.756;2023-03-01T03:20:11;7.05;;;4.70;;
75379;SDS011;65641;44.714;37.756;2023-03-01T03:21:41;7.53;;;4.70;;
75379;SDS011;65641;44.714;37.756;2023-03-01T03:22:48;7.97;;;5.57;;
75379;SDS011;65641;44.714;37.756;2023-03-01T03:25:00;7.10;;;4.28;;
75379;SDS011;65641;44.714;37.756;2023-03-01T03:26:04;8.77;;;4.55;;
75379;SDS011;65641;44.714;37.756;2023-03-01T03:27:28;7.22;;;4.28;;
75379;SDS011;65641;44.714;37.756;2023-03-01T03:28:52;8.40;;;4.60;;
75379;SDS011;65641;44.714;37.756;2023-03-01T03:29:56;7.05;;;4.90;;
75379;SDS011;65641;44.714;37.756;2023-03-01T03:31:00;7.78;;;4.20;;
75379;SDS011;65641;44.714;37.756;2023-03-01T03:32:08;8.27;;;5.13;;
75379;SDS011;65641;44.714;37.756;2023-03-01T03:33:13;8.30;;;4.60;;
75379;SDS011;65641;44.714;37.756;2023-03-01T03:34:36;7.40;;;3.97;;
75379;SDS011;65641;44.714;37.756;2023-03-01T03:35:42;6.65;;;4.05;;
75379;SDS011;65641;44.714;37.756;2023-03-01T03:36:53;7.53;;;4.75;;
75379;SDS011;65641;44.714;37.756;2023-03-01T03:38:04;7.78;;;4.53;;
75379;SDS011;65641;44.714;37.756;2023-03-01T03:39:18;8.18;;;4.47;;
75379;SDS011;65641;44.714;37.756;2023-03-01T03:40:23;8.40;;;5.28;;
75379;SDS011;65641;44.714;37.756;2023-03-01T03:41:28;8.40;;;5.07;;
75379;SDS011;65641;44.714;37.756;2023-03-01T03:42:32;7.22;;;4.40;;
75379;SDS011;65641;44.714;37.756;2023-03-01T03:43:36;8.95;;;5.28;;
75379;SDS011;65641;44.714;37.756;2023-03-01T03:44:42;7.95;;;4.93;;
75379;SDS011;65641;44.714;37.756;2023-03-01T03:46:06;8.63;;;5.07;;
75379;SDS011;65641;44.714;37.756;2023-03-01T03:47:11;8.52;;;4.93;;
75379;SDS011;65641;44.714;37.756;2023-03-01T03:48:16;11.00;;;5.00;;
75379;SDS011;65641;44.714;37.756;2023-03-01T03:49:40;8.25;;;4.70;;
75379;SDS011;65641;44.714;37.756;2023-03-01T03:50:48;7.82;;;4.80;;
75379;SDS011;65641;44.714;37.756;2023-03-01T03:51:54;8.73;;;5.00;;
75379;SDS011;65641;44.714;37.756;2023-03-01T03:52:59;10.20;;;4.93;;
75379;SDS011;65641;44.714;37.756;2023-03-01T03:54:23;9.30;;;5.25;;
75379;SDS011;65641;44.714;37.756;2023-03-01T03:55:40;8.48;;;6.00;;
75379;SDS011;65641;44.714;37.756;2023-03-01T03:57:04;8.88;;;5.68;;
75379;SDS011;65641;44.714;37.756;2023-03-01T03:58:11;9.88;;;5.15;;
75379;SDS011;65641;44.714;37.756;2023-03-01T03:59:16;9.07;;;5.55;;
75379;SDS011;65641;44.714;37.756;2023-03-01T04:00:21;8.65;;;5.03;;
75379;SDS011;65641;44.714;37.756;2023-03-01T04:01:28;9.05;;;6.07;;
75379;SDS011;65641;44.714;37.756;2023-03-01T04:02:32;8.45;;;5.40;;
75379;SDS011;65641;44.714;37.756;2023-03-01T04:03:56;9.18;;;5.70;;
75379;SDS011;65641;44.714;37.756;2023-03-01T04:05:06;9.43;;;5.50;;
75379;SDS011;65641;44.714;37.756;2023-03-01T04:06:31;11.57;;;6.50;;
75379;SDS011;65641;44.714;37.756;2023-03-01T04:07:55;9.55;;;5.82;;
75379;SDS011;65641;44.714;37.756;2023-03-01T04:09:10;10.38;;;6.22;;
75379;SDS011;65641;44.714;37.756;2023-03-01T04:10:16;9.38;;;5.78;;
75379;SDS011;65641;44.714;37.756;2023-03-01T04:11:22;11.48;;;6.65;;
75379;SDS011;65641;44.714;37.756;2023-03-01T04:12:51;9.68;;;6.03;;
75379;SDS011;65641;44.714;37.756;2023-03-01T04:15:26;11.35;;;6.43;;
75379;SDS011;65641;44.714;37.756;2023-03-01T04:16:50;10.75;;;6.60;;
75379;SDS011;65641;44.714;37.756;2023-03-01T04:17:54;10.20;;;5.82;;
75379;SDS011;65641;44.714;37.756;2023-03-01T04:19:00;11.00;;;6.55;;
75379;SDS011;65641;44.714;37.756;2023-03-01T04:20:05;10.95;;;6.50;;
75379;SDS011;65641;44.714;37.756;2023-03-01T04:21:11;12.38;;;6.45;;
75379;SDS011;65641;44.714;37.756;2023-03-01T04:22:24;11.52;;;7.07;;
75379;SDS011;65641;44.714;37.756;2023-03-01T04:23:52;9.70;;;6.30;;
75379;SDS011;65641;44.714;37.756;2023-03-01T04:24:57;10.95;;;6.30;;
75379;SDS011;65641;44.714;37.756;2023-03-01T04:26:21;12.45;;;6.50;;
75379;SDS011;65641;44.714;37.756;2023-03-01T04:27:44;10.07;;;6.10;;
75379;SDS011;65641;44.714;37.756;2023-03-01T04:28:49;11.80;;;6.18;;
75379;SDS011;65641;44.714;37.756;2023-03-01T04:29:52;10.63;;;6.70;;
75379;SDS011;65641;44.714;37.756;2023-03-01T04:30:58;11.35;;;7.28;;
75379;SDS011;65641;44.714;37.756;2023-03-01T04:32:09;10.35;;;6.68;;
75379;SDS011;65641;44.714;37.756;2023-03-01T04:33:13;10.48;;;6.10;;
75379;SDS011;65641;44.714;37.756;2023-03-01T04:34:17;11.63;;;6.68;;
75379;SDS011;65641;44.714;37.756;2023-03-01T04:35:21;10.40;;;6.35;;
75379;SDS011;65641;44.714;37.756;2023-03-01T04:36:26;11.05;;;6.80;;
75379;SDS011;65641;44.714;37.756;2023-03-01T04:37:34;10.80;;;6.90;;
75379;SDS011;65641;44.714;37.756;2023-03-01T04:38:39;11.18;;;8.48;;
75379;SDS011;65641;44.714;37.756;2023-03-01T04:40:03;11.60;;;6.45;;
75379;SDS011;65641;44.714;37.756;2023-03-01T04:41:35;10.77;;;6.82;;
75379;SDS011;65641;44.714;37.756;2023-03-01T04:42:41;11.20;;;6.43;;
75379;SDS011;65641;44.714;37.756;2023-03-01T04:43:49;10.20;;;6.35;;
75379;SDS011;65641;44.714;37.756;2023-03-01T04:44:54;10.60;;;6.63;;
75379;SDS011;65641;44.714;37.756;2023-03-01T04:46:19;9.63;;;5.88;;
75379;SDS011;65641;44.714;37.756;2023-03-01T04:47:33;10.55;;;6.60;;
75379;SDS011;65641;44.714;37.756;2023-03-01T04:48:54;9.63;;;5.68;;
75379;SDS011;65641;44.714;37.756;2023-03-01T04:49:58;11.88;;;6.15;;
75379;SDS011;65641;44.714;37.756;2023-03-01T04:51:21;11.35;;;6.68;;
75379;SDS011;65641;44.714;37.756;2023-03-01T04:52:45;10.68;;;5.90;;
75379;SDS011;65641;44.714;37.756;2023-03-01T04:53:51;13.45;;;6.07;;
75379;SDS011;65641;44.714;37.756;2023-03-01T04:55:15;10.63;;;6.20;;
75379;SDS011;65641;44.714;37.756;2023-03-01T04:56:20;10.38;;;6.10;;
75379;SDS011;65641;44.714;37.756;2023-03-01T04:57:26;10.45;;;6.20;;
75379;SDS011;65641;44.714;37.756;2023-03-01T04:58:43;11.68;;;6.43;;
75379;SDS011;65641;44.714;37.756;2023-03-01T04:59:47;11.77;;;7.00;;
75379;SDS011;65641;44.714;37.756;2023-03-01T05:00:52;10.07;;;6.47;;
75379;SDS011;65641;44.714;37.756;2023-03-01T05:01:58;9.57;;;5.28;;
75379;SDS011;65641;44.714;37.756;2023-03-01T05:03:03;10.02;;;6.38;;
75379;SDS011;65641;44.714;37.756;2023-03-01T05:04:27;9.60;;;5.93;;
75379;SDS011;65641;44.714;37.756;2023-03-01T05:05:32;9.32;;;5.72;;
75379;SDS011;65641;44.714;37.756;2023-03-01T05:06:51;9.43;;;5.80;;
75379;SDS011;65641;44.714;37.756;2023-03-01T05:08:16;9.73;;;6.13;;
75379;SDS011;65641;44.714;37.756;2023-03-01T05:09:25;9.85;;;6.57;;
75379;SDS011;65641;44.714;37.756;2023-03-01T05:10:29;10.95;;;6.45;;
75379;SDS011;65641;44.714;37.756;2023-03-01T05:11:36;9.27;;;5.93;;
75379;SDS011;65641;44.714;37.756;2023-03-01T05:12:40;8.90;;;5.72;;
75379;SDS011;65641;44.714;37.756;2023-03-01T05:14:04;10.65;;;6.40;;
75379;SDS011;65641;44.714;37.756;2023-03-01T05:15:29;9.23;;;6.53;;
75379;SDS011;65641;44.714;37.756;2023-03-01T05:16:34;10.05;;;7.00;;
75379;SDS011;65641;44.714;37.756;2023-03-01T05:17:59;9.10;;;6.22;;
75379;SDS011;65641;44.714;37.756;2023-03-01T05:19:03;9.70;;;6.30;;
75379;SDS011;65641;44.714;37.756;2023-03-01T05:20:18;10.68;;;5.57;;
75379;SDS011;65641;44.714;37.756;2023-03-01T05:21:30;9.05;;;5.10;;
75379;SDS011;65641;44.714;37.756;2023-03-01T05:22:55;10.30;;;6.32;;
75379;SDS011;65641;44.714;37.756;2023-03-01T05:24:17;8.85;;;5.45;;
75379;SDS011;65641;44.714;37.756;2023-03-01T05:25:20;11.52;;;6.05;;
75379;SDS011;65641;44.714;37.756;2023-03-01T05:26:25;10.18;;;5.93;;
75379;SDS011;65641;44.714;37.756;2023-03-01T05:27:51;9.18;;;6.22;;
75379;SDS011;65641;44.714;37.756;2023-03-01T05:28:58;9.98;;;6.03;;
75379;SDS011;65641;44.714;37.756;2023-03-01T05:30:04;9.55;;;5.65;;
75379;SDS011;65641;44.714;37.756;2023-03-01T05:31:33;9.43;;;6.00;;
75379;SDS011;65641;44.714;37.756;2023-03-01T05:32:36;8.65;;;5.53;;
75379;SDS011;65641;44.714;37.756;2023-03-01T05:33:40;9.98;;;6.05;;
75379;SDS011;65641;44.714;37.756;2023-03-01T05:34:43;9.07;;;6.57;;
75379;SDS011;65641;44.714;37.756;2023-03-01T05:36:09;11.57;;;6.45;;
75379;SDS011;65641;44.714;37.756;2023-03-01T05:37:14;9.07;;;6.00;;
75379;SDS011;65641;44.714;37.756;2023-03-01T05:38:20;8.98;;;5.60;;
75379;SDS011;65641;44.714;37.756;2023-03-01T05:39:24;10.27;;;6.10;;
75379;SDS011;65641;44.714;37.756;2023-03-01T05:40:49;8.68;;;5.90;;
75379;SDS011;65641;44.714;37.756;2023-03-01T05:41:57;9.43;;;5.53;;
75379;SDS011;65641;44.714;37.756;2023-03-01T05:43:02;10.10;;;6.00;;
75379;SDS011;65641;44.714;37.756;2023-03-01T05:44:21;8.38;;;5.25;;
75379;SDS011;65641;44.714;37.756;2023-03-01T05:45:26;10.02;;;5.72;;
75379;SDS011;65641;44.714;37.756;2023-03-01T05:46:30;10.32;;;5.95;;
75379;SDS011;65641;44.714;37.756;2023-03-01T05:47:34;9.45;;;5.97;;
75379;SDS011;65641;44.714;37.756;2023-03-01T05:48:37;10.35;;;6.15;;
75379;SDS011;65641;44.714;37.756;2023-03-01T05:49:41;9.20;;;5.70;;
75379;SDS011;65641;44.714;37.756;2023-03-01T05:50:44;9.50;;;5.90;;
75379;SDS011;65641;44.714;37.756;2023-03-01T05:51:48;8.75;;;5.38;;
75379;SDS011;65641;44.714;37.756;2023-03-01T05:54:36;8.95;;;6.05;;
75379;SDS011;65641;44.714;37.756;2023-03-01T05:55:41;8.85;;;5.35;;
75379;SDS011;65641;44.714;37.756;2023-03-01T05:56:45;10.10;;;6.05;;
75379;SDS011;65641;44.714;37.756;2023-03-01T05:57:48;8.23;;;5.68;;
75379;SDS011;65641;44.714;37.756;2023-03-01T05:58:52;7.70;;;5.65;;
75379;SDS011;65641;44.714;37.756;2023-03-01T05:59:55;9.48;;;5.78;;
75379;SDS011;65641;44.714;37.756;2023-03-01T06:00:58;7.85;;;5.28;;
75379;SDS011;65641;44.714;37.756;2023-03-01T06:02:21;9.50;;;6.40;;
75379;SDS011;65641;44.714;37.756;2023-03-01T06:03:26;8.40;;;5.60;;
75379;SDS011;65641;44.714;37.756;2023-03-01T06:04:29;10.25;;;5.88;;
75379;SDS011;65641;44.714;37.756;2023-03-01T06:05:56;10.00;;;5.63;;
75379;SDS011;65641;44.714;37.756;2023-03-01T06:07:20;7.80;;;4.85;;
75379;SDS011;65641;44.714;37.756;2023-03-01T06:08:24;8.32;;;5.00;;
75379;SDS011;65641;44.714;37.756;2023-03-01T06:09:29;7.60;;;5.18;;
75379;SDS011;65641;44.714;37.756;2023-03-01T06:10:32;7.47;;;5.43;;
75379;SDS011;65641;44.714;37.756;2023-03-01T06:11:36;7.90;;;5.50;;
75379;SDS011;65641;44.714;37.756;2023-03-01T06:12:45;8.05;;;4.65;;
75379;SDS011;65641;44.714;37.756;2023-03-01T06:14:08;8.38;;;5.40;;
75379;SDS011;65641;44.714;37.756;2023-03-01T06:15:33;7.22;;;4.53;;
75379;SDS011;65641;44.714;37.756;2023-03-01T06:16:57;9.68;;;5.95;;
75379;SDS011;65641;44.714;37.756;2023-03-01T06:18:02;7.40;;;5.00;;
75379;SDS011;65641;44.714;37.756;2023-03-01T06:19:05;8.07;;;5.40;;
75379;SDS011;65641;44.714;37.756;2023-03-01T06:20:12;7.82;;;5.30;;
75379;SDS011;65641;44.714;37.756;2023-03-01T06:21:45;7.75;;;5.45;;
75379;SDS011;65641;44.714;37.756;2023-03-01T06:22:54;8.00;;;4.70;;
75379;SDS011;65641;44.714;37.756;2023-03-01T06:23:58;7.35;;;4.90;;
75379;SDS011;65641;44.714;37.756;2023-03-01T06:25:03;9.02;;;5.00;;
75379;SDS011;65641;44.714;37.756;2023-03-01T06:26:28;8.85;;;4.80;;
75379;SDS011;65641;44.714;37.756;2023-03-01T06:27:33;8.13;;;5.40;;
75379;SDS011;65641;44.714;37.756;2023-03-01T06:28:36;8.68;;;5.38;;
75379;SDS011;65641;44.714;37.756;2023-03-01T06:29:41;9.77;;;5.55;;
75379;SDS011;65641;44.714;37.756;2023-03-01T06:30:44;8.75;;;5.30;;
75379;SDS011;65641;44.714;37.756;2023-03-01T06:31:48;9.65;;;5.60;;
75379;SDS011;65641;44.714;37.756;2023-03-01T06:32:53;7.63;;;5.00;;
75379;SDS011;65641;44.714;37.756;2023-03-01T06:34:04;8.45;;;6.00;;
75379;SDS011;65641;44.714;37.756;2023-03-01T06:35:09;8.95;;;4.97;;
75379;SDS011;65641;44.714;37.756;2023-03-01T06:36:18;8.25;;;5.50;;
75379;SDS011;65641;44.714;37.756;2023-03-01T06:37:23;7.50;;;5.32;;
75379;SDS011;65641;44.714;37.756;2023-03-01T06:38:26;8.02;;;5.65;;
75379;SDS011;65641;44.714;37.756;2023-03-01T06:39:31;8.35;;;5.90;;
75379;SDS011;65641;44.714;37.756;2023-03-01T06:40:36;8.48;;;5.88;;
75379;SDS011;65641;44.714;37.756;2023-03-01T06:41:40;7.68;;;5.72;;
75379;SDS011;65641;44.714;37.756;2023-03-01T06:42:47;8.90;;;5.82;;
75379;SDS011;65641;44.714;37.756;2023-03-01T06:43:59;8.75;;;5.95;;
75379;SDS011;65641;44.714;37.756;2023-03-01T06:45:02;9.48;;;5.45;;
75379;SDS011;65641;44.714;37.756;2023-03-01T06:46:07;9.52;;;5.35;;
75379;SDS011;65641;44.714;37.756;2023-03-01T06:47:12;7.97;;;6.03;;
75379;SDS011;65641;44.714;37.756;2023-03-01T06:48:17;8.15;;;5.55;;
75379;SDS011;65641;44.714;37.756;2023-03-01T06:49:22;8.82;;;5.35;;
75379;SDS011;65641;44.714;37.756;2023-03-01T06:50:27;9.88;;;6.00;;
75379;SDS011;65641;44.714;37.756;2023-03-01T06:51:31;9.18;;;6.05;;
75379;SDS011;65641;44.714;37.756;2023-03-01T06:52:36;9.98;;;6.57;;
75379;SDS011;65641;44.714;37.756;2023-03-01T06:53:39;8.65;;;5.53;;
75379;SDS011;65641;44.714;37.756;2023-03-01T06:54:48;8.55;;;5.60;;
75379;SDS011;65641;44.714;37.756;2023-03-01T06:55:54;9.48;;;7.15;;
75379;SDS011;65641;44.714;37.756;2023-03-01T06:56:58;8.65;;;5.90;;
75379;SDS011;65641;44.714;37.756;2023-03-01T06:58:03;7.47;;;5.70;;
75379;SDS011;65641;44.714;37.756;2023-03-01T06:59:06;7.95;;;6.00;;
75379;SDS011;65641;44.714;37.756;2023-03-01T07:00:10;8.70;;;5.45;;
75379;SDS011;65641;44.714;37.756;2023-03-01T07:01:14;8.02;;;5.28;;
75379;SDS011;65641;44.714;37.756;2023-03-01T07:02:17;8.88;;;5.50;;
75379;SDS011;65641;44.714;37.756;2023-03-01T07:03:20;9.05;;;5.97;;
75379;SDS011;65641;44.714;37.756;2023-03-01T07:04:27;10.73;;;7.22;;
75379;SDS011;65641;44.714;37.756;2023-03-01T07:05:33;8.57;;;5.82;;
75379;SDS011;65641;44.714;37.756;2023-03-01T07:06:37;9.30;;;5.95;;
75379;SDS011;65641;44.714;37.756;2023-03-01T07:07:40;9.38;;;6.38;;
75379;SDS011;65641;44.714;37.756;2023-03-01T07:08:46;8.63;;;5.70;;
75379;SDS011;65641;44.714;37.756;2023-03-01T07:09:49;9.48;;;6.70;;
75379;SDS011;65641;44.714;37.756;2023-03-01T07:10:56;9.25;;;5.90;;
75379;SDS011;65641;44.714;37.756;2023-03-01T07:12:00;9.13;;;6.50;;
75379;SDS011;65641;44.714;37.756;2023-03-01T07:13:05;9.80;;;5.97;;
75379;SDS011;65641;44.714;37.756;2023-03-01T07:14:15;8.80;;;5.85;;
75379;SDS011;65641;44.714;37.756;2023-03-01T07:15:18;9.32;;;6.18;;
75379;SDS011;65641;44.714;37.756;2023-03-01T07:16:42;8.65;;;6.13;;
75379;SDS011;65641;44.714;37.756;2023-03-01T07:17:46;10.05;;;6.55;;
75379;SDS011;65641;44.714;37.756;2023-03-01T07:18:53;8.93;;;5.70;;
75379;SDS011;65641;44.714;37.756;2023-03-01T07:20:01;8.88;;;5.57;;